Time;durP1;ratioP1;P1;durP2;ratioP2;P2;SDS_P1;SDS_P2;PMS_P1;PMS_P2;Temp;Humidity;BMP_temperature;BMP_pressure;BME280_temperature;BME280_humidity;BME280_pressure;Samples;Min_cycle;Max_cycle;Signal;HPM_P1;HPM_P2
2023/07/14 00:00:23;;;;;;;18.80;11.82;;;14.60;99.90;;;;;;5053325;28;20079;-66
2023/07/14 00:02:50;;;;;;;16.70;10.18;;;14.60;99.90;;;;;;5054026;28;20029;-66
2023/07/14 00:05:22;;;;;;;12.15;9.05;;;14.70;99.90;;;;;;5054339;28;20475;-67
2023/07/14 00:07:49;;;;;;;18.35;10.32;;;14.70;99.90;;;;;;5053743;28;20058;-66
2023/07/14 00:10:19;;;;;;;17.75;10.50;;;14.70;99.90;;;;;;5053893;28;20371;-67
2023/07/14 00:12:46;;;;;;;20.45;11.40;;;14.70;99.90;;;;;;5053907;28;20493;-66
2023/07/14 00:15:12;;;;;;;18.67;10.48;;;14.70;99.90;;;;;;5054004;28;20029;-66
2023/07/14 00:17:38;;;;;;;14.32;9.38;;;14.70;99.90;;;;;;5053823;28;20029;-67
2023/07/14 00:20:19;;;;;;;19.27;10.02;;;14.70;99.90;;;;;;5053816;28;20048;-66
2023/07/14 00:22:45;;;;;;;14.70;9.00;;;14.60;99.90;;;;;;5053718;28;20048;-66
2023/07/14 00:25:12;;;;;;;13.93;9.80;;;14.60;99.90;;;;;;5053919;28;20032;-66
2023/07/14 00:27:38;;;;;;;13.68;9.27;;;14.50;99.90;;;;;;5053527;28;20098;-67
2023/07/14 00:30:13;;;;;;;17.15;9.60;;;14.40;99.90;;;;;;5053649;28;20467;-66
2023/07/14 00:32:39;;;;;;;21.30;10.15;;;14.40;99.90;;;;;;5053559;28;20139;-66
2023/07/14 00:35:24;;;;;;;13.38;10.00;;;14.30;99.90;;;;;;5053397;28;20047;-67
2023/07/14 00:37:51;;;;;;;13.43;9.75;;;14.30;99.90;;;;;;5053740;28;20031;-67
2023/07/14 00:40:22;;;;;;;19.13;9.57;;;14.20;99.90;;;;;;5053443;28;20508;-67
2023/07/14 00:42:53;;;;;;;16.75;10.35;;;14.20;99.90;;;;;;5053327;28;20487;-67
2023/07/14 00:45:21;;;;;;;13.60;9.43;;;14.10;99.90;;;;;;5052370;28;20029;-67
2023/07/14 00:47:52;;;;;;;16.27;9.13;;;14.10;99.90;;;;;;5053382;28;20376;-67
2023/07/14 00:50:43;;;;;;;14.98;9.75;;;14.00;99.90;;;;;;5053218;28;20025;-67
2023/07/14 00:53:16;;;;;;;18.58;10.63;;;14.00;99.90;;;;;;5053185;28;20075;-67
2023/07/14 00:55:46;;;;;;;15.30;10.13;;;14.00;99.90;;;;;;5053263;28;20048;-66
2023/07/14 00:58:16;;;;;;;17.17;10.80;;;14.00;99.90;;;;;;5053191;28;20021;-67
2023/07/14 01:01:21;;;;;;;26.40;12.77;;;14.00;99.90;;;;;;5053158;28;20024;-67
2023/07/14 01:03:50;;;;;;;16.02;10.60;;;14.00;99.90;;;;;;5053128;28;20033;-66
2023/07/14 01:06:19;;;;;;;15.20;10.88;;;14.00;99.90;;;;;;5052918;28;20120;-67
2023/07/14 01:09:08;;;;;;;15.75;10.93;;;13.90;99.90;;;;;;5052879;28;20052;-66
2023/07/14 01:11:43;;;;;;;19.27;12.75;;;13.90;99.90;;;;;;5053195;28;20523;-67
2023/07/14 01:14:17;;;;;;;18.02;12.43;;;13.90;99.90;;;;;;5053036;28;20017;-66
2023/07/14 01:16:43;;;;;;;23.83;13.90;;;13.90;99.90;;;;;;5053278;28;20112;-66
2023/07/14 01:19:21;;;;;;;21.65;13.85;;;13.90;99.90;;;;;;5052744;28;20082;-67
2023/07/14 01:21:54;;;;;;;20.65;14.02;;;13.90;99.90;;;;;;5052956;28;20029;-67
2023/07/14 01:24:27;;;;;;;18.17;12.57;;;13.90;99.90;;;;;;5052843;28;20029;-67
2023/07/14 01:26:58;;;;;;;23.55;13.48;;;13.80;99.90;;;;;;5053203;28;20029;-67
2023/07/14 01:29:24;;;;;;;24.88;13.57;;;13.90;99.90;;;;;;5052960;28;20051;-67
2023/07/14 01:31:51;;;;;;;17.90;12.80;;;13.80;99.90;;;;;;5053010;28;20471;-67
2023/07/14 01:34:17;;;;;;;24.98;14.60;;;13.90;99.90;;;;;;5052881;28;20108;-67
2023/07/14 01:36:44;;;;;;;25.65;15.73;;;13.80;99.90;;;;;;5052898;28;20056;-67
2023/07/14 01:39:11;;;;;;;27.48;15.80;;;13.80;99.90;;;;;;5052854;28;20394;-66
2023/07/14 01:41:36;;;;;;;25.35;15.35;;;13.90;99.90;;;;;;5052857;28;20021;-67
2023/07/14 01:44:04;;;;;;;19.95;13.85;;;13.90;99.90;;;;;;5052794;28;20413;-66
2023/07/14 01:46:30;;;;;;;25.35;14.60;;;13.90;99.90;;;;;;5052830;28;20033;-67
2023/07/14 01:51:38;;;;;;;21.02;13.23;;;13.80;99.90;;;;;;5070630;28;20437;-67
2023/07/14 01:54:18;;;;;;;28.05;14.60;;;13.80;99.90;;;;;;5070610;28;20033;-67
2023/07/14 01:56:44;;;;;;;22.30;14.10;;;13.80;99.90;;;;;;5070395;28;20025;-67
2023/07/14 01:59:29;;;;;;;25.88;15.07;;;13.80;99.90;;;;;;5070645;28;20032;-67
2023/07/14 02:01:59;;;;;;;26.60;15.05;;;13.80;99.90;;;;;;5070437;28;20029;-67
2023/07/14 02:04:30;;;;;;;27.13;14.75;;;13.80;99.90;;;;;;5070566;28;20025;-67
2023/07/14 02:06:56;;;;;;;21.63;14.05;;;13.80;99.90;;;;;;5070498;28;20029;-67
2023/07/14 02:09:24;;;;;;;22.20;14.80;;;13.80;99.90;;;;;;5070491;28;20056;-67
2023/07/14 02:11:56;;;;;;;26.48;13.80;;;13.80;99.90;;;;;;5070532;28;20017;-67
2023/07/14 02:14:24;;;;;;;23.85;14.88;;;13.80;99.90;;;;;;5070232;28;20028;-67
2023/07/14 02:16:51;;;;;;;29.30;15.13;;;13.90;99.90;;;;;;5070377;28;20475;-67
2023/07/14 02:19:22;;;;;;;31.30;16.30;;;13.90;99.90;;;;;;5070196;28;20021;-68
2023/07/14 02:21:49;;;;;;;24.17;13.57;;;13.90;99.90;;;;;;5069963;28;20112;-67
2023/07/14 02:24:22;;;;;;;24.92;14.20;;;13.90;99.90;;;;;;5070140;28;20383;-67
2023/07/14 02:26:59;;;;;;;24.35;15.50;;;13.90;99.90;;;;;;5069980;28;20017;-67
2023/07/14 02:29:25;;;;;;;25.67;16.65;;;14.00;99.90;;;;;;5069839;28;20441;-67
2023/07/14 02:31:57;;;;;;;24.33;14.82;;;14.00;99.90;;;;;;5070133;28;20050;-67
2023/07/14 02:34:26;;;;;;;32.63;16.08;;;14.00;99.90;;;;;;5070057;28;20024;-67
2023/07/14 02:36:57;;;;;;;25.90;14.00;;;14.10;99.90;;;;;;5070000;28;20025;-66
2023/07/14 02:39:24;;;;;;;25.90;13.15;;;14.10;99.90;;;;;;5069738;28;20025;-67
2023/07/14 02:41:55;;;;;;;21.85;13.30;;;14.10;99.90;;;;;;5069744;28;20016;-68
2023/07/14 02:44:25;;;;;;;24.77;13.13;;;14.10;99.90;;;;;;5069588;28;20035;-67
2023/07/14 02:46:56;;;;;;;22.42;11.95;;;14.20;99.90;;;;;;5069607;28;20463;-67
2023/07/14 02:49:22;;;;;;;18.48;12.13;;;14.20;99.90;;;;;;5069147;28;20044;-67
2023/07/14 02:51:47;;;;;;;19.42;11.80;;;14.20;99.90;;;;;;5069549;28;20411;-67
2023/07/14 02:54:13;;;;;;;21.52;12.35;;;14.20;99.90;;;;;;5069505;28;20524;-67
2023/07/14 02:56:39;;;;;;;26.85;12.00;;;14.20;99.90;;;;;;5069233;28;20052;-67
2023/07/14 02:59:06;;;;;;;21.17;12.00;;;14.20;99.90;;;;;;5069038;28;20067;-67
2023/07/14 03:01:32;;;;;;;18.58;12.43;;;14.20;99.90;;;;;;5063866;28;20032;-67
2023/07/14 03:03:59;;;;;;;23.35;11.68;;;14.30;99.90;;;;;;5055817;28;20021;-67
2023/07/14 03:06:25;;;;;;;16.50;11.70;;;14.30;99.90;;;;;;5056026;28;20025;-67
2023/07/14 03:08:51;;;;;;;19.30;11.52;;;14.30;99.90;;;;;;5056102;28;20597;-67
2023/07/14 03:11:18;;;;;;;20.15;11.90;;;14.30;99.90;;;;;;5055655;28;20088;-67
2023/07/14 03:13:46;;;;;;;25.42;11.93;;;14.30;99.90;;;;;;5055822;28;20348;-67
2023/07/14 03:16:12;;;;;;;16.13;9.77;;;14.30;99.90;;;;;;5055713;28;20029;-67
2023/07/14 03:18:37;;;;;;;19.75;10.40;;;14.20;99.90;;;;;;5055716;28;20017;-67
2023/07/14 03:21:04;;;;;;;25.48;11.05;;;14.10;99.90;;;;;;5055727;28;20021;-71
2023/07/14 03:23:30;;;;;;;17.98;9.10;;;14.00;99.90;;;;;;5054471;28;20025;-67
2023/07/14 03:26:01;;;;;;;13.02;9.85;;;14.00;99.90;;;;;;5055647;28;20564;-67
2023/07/14 03:28:28;;;;;;;15.77;10.65;;;14.00;99.90;;;;;;5055753;28;20107;-67
2023/07/14 03:30:54;;;;;;;16.33;9.73;;;14.00;99.90;;;;;;5055543;28;20496;-67
2023/07/14 03:33:19;;;;;;;25.40;13.27;;;13.90;99.90;;;;;;5055445;28;20111;-67
2023/07/14 03:35:45;;;;;;;20.20;11.63;;;13.90;99.90;;;;;;5055356;28;20109;-67
2023/07/14 03:38:10;;;;;;;31.80;12.63;;;13.90;99.90;;;;;;5055349;28;20025;-67
2023/07/14 03:40:36;;;;;;;32.28;13.13;;;13.90;99.90;;;;;;5055406;28;20036;-67
2023/07/14 03:43:03;;;;;;;19.27;12.23;;;14.00;99.90;;;;;;5055346;28;20083;-67
2023/07/14 03:45:30;;;;;;;27.90;14.00;;;13.90;99.90;;;;;;5054958;28;20021;-67
2023/07/14 03:47:56;;;;;;;23.42;14.13;;;13.90;99.90;;;;;;5055287;28;20033;-67
2023/07/14 03:50:21;;;;;;;24.13;13.10;;;13.90;99.90;;;;;;5054880;28;20045;-66
2023/07/14 03:52:47;;;;;;;22.13;11.80;;;13.80;99.90;;;;;;5055149;28;20112;-67
2023/07/14 03:55:12;;;;;;;29.92;15.95;;;13.80;99.90;;;;;;5055117;28;20025;-66
2023/07/14 03:57:38;;;;;;;25.85;15.60;;;13.80;99.90;;;;;;5055095;28;20386;-67
2023/07/14 04:00:12;;;;;;;26.85;14.50;;;13.80;99.90;;;;;;5053982;28;20063;-67
2023/07/14 04:02:38;;;;;;;;;;;13.90;99.90;;;;;;5055493;28;20086;-67
2023/07/14 04:05:04;;;;;;;25.10;14.48;;;13.90;99.90;;;;;;5054999;28;19919;-67
2023/07/14 04:07:30;;;;;;;23.70;14.02;;;13.90;99.90;;;;;;5054841;28;20035;-67
2023/07/14 04:09:56;;;;;;;23.05;13.75;;;14.00;99.90;;;;;;5054673;28;20112;-67
2023/07/14 04:12:21;;;;;;;26.58;13.73;;;14.00;99.90;;;;;;5054666;28;20025;-67
2023/07/14 04:14:47;;;;;;;28.67;15.18;;;14.10;99.90;;;;;;5053497;28;20024;-67
2023/07/14 04:17:12;;;;;;;24.83;13.77;;;14.10;99.90;;;;;;5054585;28;20104;-71
2023/07/14 04:19:38;;;;;;;22.63;13.70;;;14.20;99.90;;;;;;5054720;28;20044;-67
2023/07/14 04:22:03;;;;;;;21.95;13.90;;;14.20;99.90;;;;;;5054551;28;20471;-67
2023/07/14 04:24:29;;;;;;;23.73;13.85;;;14.30;99.90;;;;;;5054597;28;20025;-67
2023/07/14 04:26:55;;;;;;;19.40;12.20;;;14.40;99.90;;;;;;5054605;28;20029;-67
2023/07/14 04:29:21;;;;;;;19.77;10.98;;;14.40;99.90;;;;;;5054524;28;20029;-67
2023/07/14 04:31:47;;;;;;;32.35;14.18;;;14.50;99.90;;;;;;5054250;28;20033;-67
2023/07/14 04:34:12;;;;;;;23.05;13.05;;;14.60;99.90;;;;;;5054444;28;20029;-67
2023/07/14 04:36:38;;;;;;;23.60;11.50;;;14.70;99.90;;;;;;5054196;28;20507;-67
2023/07/14 04:39:10;;;;;;;20.73;10.82;;;14.80;99.90;;;;;;5054243;28;20017;-67
2023/07/14 04:41:36;;;;;;;15.70;9.80;;;15.10;99.90;;;;;;5053900;28;20021;-67
2023/07/14 04:44:08;;;;;;;28.13;10.65;;;15.30;99.90;;;;;;5053949;28;20029;-68
2023/07/14 04:46:34;;;;;;;16.48;8.85;;;15.90;99.90;;;;;;5053766;28;20021;-67
2023/07/14 04:48:59;;;;;;;13.93;7.97;;;16.60;99.90;;;;;;5054152;28;20021;-68
2023/07/14 04:51:25;;;;;;;16.60;7.35;;;16.90;99.90;;;;;;5053712;28;20048;-68
2023/07/14 04:53:50;;;;;;;13.50;6.60;;;17.30;93.40;;;;;;5053727;28;20035;-67
2023/07/14 04:56:16;;;;;;;11.50;6.53;;;17.90;69.10;;;;;;5054006;28;20060;-68
2023/07/14 04:58:41;;;;;;;11.93;6.60;;;18.90;1.70;;;;;;5054007;28;20033;-67
2023/07/14 05:01:07;;;;;;;16.00;5.88;;;19.40;1.00;;;;;;5053768;28;20033;-68
2023/07/14 05:03:33;;;;;;;11.82;5.40;;;19.80;1.00;;;;;;5053670;28;20083;-68
2023/07/14 05:05:58;;;;;;;13.73;5.63;;;20.00;1.00;;;;;;5053736;28;20506;-68
2023/07/14 05:08:24;;;;;;;10.80;5.00;;;20.40;99.90;;;;;;5053768;28;20475;-68
2023/07/14 05:10:50;;;;;;;14.02;5.43;;;20.30;99.90;;;;;;5053468;28;20025;-68
2023/07/14 05:13:15;;;;;;;12.18;5.03;;;20.70;99.90;;;;;;5053553;28;20403;-68
2023/07/14 05:15:44;;;;;;;14.45;5.97;;;21.40;1.00;;;;;;5053660;28;20090;-68
2023/07/14 05:18:09;;;;;;;12.75;5.40;;;21.20;1.00;;;;;;5053602;28;20064;-68
2023/07/14 05:20:36;;;;;;;10.82;5.00;;;20.60;77.30;;;;;;5053676;28;20052;-68
2023/07/14 05:23:03;;;;;;;17.42;5.65;;;20.50;99.90;;;;;;5053199;28;20021;-68
2023/07/14 05:25:28;;;;;;;11.35;5.05;;;20.40;1.00;;;;;;5053027;28;20467;-68
2023/07/14 05:27:54;;;;;;;18.80;5.20;;;20.10;99.90;;;;;;5053670;28;20029;-67
2023/07/14 05:30:21;;;;;;;10.82;5.22;;;19.60;99.90;;;;;;5053202;28;20083;-67
2023/07/14 05:32:47;;;;;;;10.05;5.05;;;19.30;1.00;;;;;;5053447;28;20418;-68
2023/07/14 05:35:13;;;;;;;16.55;5.28;;;19.10;1.00;;;;;;5053118;28;20021;-67
2023/07/14 05:37:39;;;;;;;10.73;4.95;;;19.00;1.00;;;;;;5053411;28;20029;-68
2023/07/14 05:40:07;;;;;;;14.93;4.95;;;19.00;1.00;;;;;;5053225;28;20029;-67
2023/07/14 05:42:33;;;;;;;11.98;5.00;;;19.20;1.00;;;;;;5053421;28;20087;-68
2023/07/14 05:44:58;;;;;;;13.73;5.47;;;19.00;1.00;;;;;;5053223;28;20022;-68
2023/07/14 05:47:24;;;;;;;16.10;5.50;;;19.10;1.00;;;;;;5053319;28;20040;-67
2023/07/14 05:49:50;;;;;;;12.57;5.30;;;18.80;1.00;;;;;;5052756;28;20056;-67
2023/07/14 05:52:16;;;;;;;13.80;5.55;;;18.90;1.00;;;;;;5053205;28;20056;-67
2023/07/14 05:54:42;;;;;;;13.35;6.57;;;18.70;1.00;;;;;;5053161;28;20044;-68
2023/07/14 05:57:08;;;;;;;13.20;5.57;;;18.70;1.00;;;;;;5053013;28;20025;-67
2023/07/14 05:59:33;;;;;;;15.30;6.10;;;18.70;1.00;;;;;;5053155;28;20383;-67
2023/07/14 06:01:59;;;;;;;18.05;5.97;;;18.80;1.00;;;;;;5053166;28;20502;-67
2023/07/14 06:04:24;;;;;;;12.23;5.70;;;19.00;1.00;;;;;;5053038;28;20025;-68
2023/07/14 06:06:50;;;;;;;15.48;5.85;;;19.10;1.00;;;;;;5052610;28;20463;-67
2023/07/14 06:09:16;;;;;;;13.70;6.15;;;19.30;1.00;;;;;;5052830;28;20117;-68
2023/07/14 06:11:42;;;;;;;13.43;5.70;;;19.30;1.00;;;;;;5053067;28;20021;-67
2023/07/14 06:14:09;;;;;;;14.98;5.55;;;19.20;1.00;;;;;;5052736;28;20501;-68
2023/07/14 06:16:34;;;;;;;15.07;6.45;;;19.20;1.00;;;;;;5052908;28;20096;-68
2023/07/14 06:19:00;;;;;;;13.88;5.50;;;19.30;1.00;;;;;;5053017;28;20474;-68
2023/07/14 06:21:26;;;;;;;14.80;6.72;;;19.50;1.00;;;;;;5052940;28;20037;-68
2023/07/14 06:23:51;;;;;;;11.30;6.28;;;19.50;99.90;;;;;;5052894;28;20029;-68
2023/07/14 06:26:17;;;;;;;17.55;7.03;;;19.50;1.00;;;;;;5052935;28;20033;-68
2023/07/14 06:28:43;;;;;;;13.00;6.70;;;19.70;1.00;;;;;;5052751;28;20025;-68
2023/07/14 06:31:11;;;;;;;12.88;6.40;;;19.80;1.00;;;;;;5052339;28;20033;-68
2023/07/14 06:33:37;;;;;;;15.45;6.90;;;19.80;99.90;;;;;;5052459;28;20021;-68
2023/07/14 06:36:03;;;;;;;17.63;6.65;;;20.00;99.90;;;;;;5052746;28;20017;-68
2023/07/14 06:38:29;;;;;;;12.45;5.68;;;20.00;99.90;;;;;;5056506;28;20048;-68
2023/07/14 06:41:00;;;;;;;12.00;5.43;;;20.60;99.90;;;;;;5056246;28;20025;-68
2023/07/14 06:43:25;;;;;;;14.60;4.90;;;21.30;99.90;;;;;;5056156;28;20152;-68
2023/07/14 06:45:52;;;;;;;15.10;5.22;;;23.00;1.00;;;;;;5056097;28;20068;-68
2023/07/14 06:48:17;;;;;;;14.55;4.60;;;24.00;99.90;;;;;;5056446;28;20503;-68
2023/07/14 06:50:44;;;;;;;8.73;4.53;;;25.20;1.00;;;;;;5055724;28;20053;-69
2023/07/14 06:53:10;;;;;;;10.70;4.00;;;25.80;99.90;;;;;;5056147;28;20029;-69
2023/07/14 06:55:38;;;;;;;11.77;4.05;;;25.70;99.90;;;;;;5056105;28;20083;-66
2023/07/14 06:58:05;;;;;;;14.43;4.30;;;26.30;1.00;;;;;;5054954;28;20115;-66
2023/07/14 07:00:31;;;;;;;9.23;4.28;;;25.30;99.90;;;;;;5056134;28;20035;-66
2023/07/14 07:02:57;;;;;;;16.00;4.30;;;26.10;1.00;;;;;;5056056;28;20053;-66
2023/07/14 07:05:23;;;;;;;9.10;3.95;;;26.00;4.30;;;;;;5056135;28;20021;-66
2023/07/14 07:07:49;;;;;;;15.45;4.38;;;26.00;1.00;;;;;;5055784;28;20074;-67
2023/07/14 07:10:15;;;;;;;9.52;4.53;;;26.00;22.80;;;;;;5055704;28;20116;-67
2023/07/14 07:12:41;;;;;;;12.15;4.38;;;26.20;1.00;;;;;;5055896;28;20482;-67
2023/07/14 07:15:07;;;;;;;11.45;3.63;;;25.90;1.00;;;;;;5055786;28;20386;-67
2023/07/14 07:17:32;;;;;;;10.20;3.28;;;26.60;1.00;;;;;;5055904;28;20017;-67
2023/07/14 07:19:58;;;;;;;9.43;3.60;;;27.30;99.90;;;;;;5055631;28;20032;-67
2023/07/14 07:22:23;;;;;;;8.63;3.65;;;26.40;99.90;;;;;;5055776;28;20044;-66
2023/07/14 07:24:49;;;;;;;7.30;3.45;;;25.60;99.90;;;;;;5055714;28;20052;-67
2023/07/14 07:27:14;;;;;;;7.15;3.42;;;25.60;1.00;;;;;;5055533;28;20029;-67
2023/07/14 07:29:41;;;;;;;8.45;3.17;;;25.80;1.00;;;;;;5055381;28;20029;-67
2023/07/14 07:32:08;;;;;;;11.15;3.15;;;24.60;99.90;;;;;;5055567;28;20471;-67
2023/07/14 07:34:33;;;;;;;11.63;3.65;;;24.90;99.90;;;;;;5055184;28;20053;-67
2023/07/14 07:36:59;;;;;;;9.57;4.30;;;24.90;99.90;;;;;;5055513;28;20088;-67
2023/07/14 07:39:25;;;;;;;7.68;3.45;;;24.70;99.90;;;;;;5055403;28;20383;-67
2023/07/14 07:41:50;;;;;;;9.68;3.70;;;24.60;99.90;;;;;;5055410;28;20033;-67
2023/07/14 07:44:16;;;;;;;9.32;3.60;;;24.20;1.00;;;;;;5054961;28;20033;-67
2023/07/14 07:46:41;;;;;;;8.55;3.15;;;24.50;99.90;;;;;;5055452;28;20025;-68
2023/07/14 07:49:07;;;;;;;6.63;3.30;;;25.50;88.80;;;;;;5054879;28;20025;-68
2023/07/14 07:51:33;;;;;;;7.47;3.25;;;26.00;1.00;;;;;;5055004;28;20037;-67
2023/07/14 07:53:59;;;;;;;5.82;3.13;;;25.40;1.00;;;;;;5055209;28;20491;-67
2023/07/14 07:56:25;;;;;;;6.80;3.30;;;25.50;1.00;;;;;;5054960;28;20062;-67
2023/07/14 07:58:51;;;;;;;8.23;2.83;;;25.50;1.00;;;;;;5054970;28;20037;-67
2023/07/14 08:01:20;;;;;;;3.92;2.65;;;25.40;1.00;;;;;;5054590;28;20029;-67
2023/07/14 08:03:46;;;;;;;8.63;2.90;;;25.80;1.00;;;;;;5055042;28;20032;-67
2023/07/14 08:06:12;;;;;;;7.53;2.88;;;24.70;1.00;;;;;;5054775;28;20025;-67
2023/07/14 08:08:38;;;;;;;14.43;3.65;;;24.30;47.70;;;;;;5054886;28;20037;-67
2023/07/14 08:11:08;;;;;;;5.95;2.83;;;24.60;1.00;;;;;;5054726;28;20029;-67
2023/07/14 08:13:33;;;;;;;5.63;2.55;;;24.30;60.00;;;;;;5054750;28;20021;-67
2023/07/14 08:15:59;;;;;;;7.63;2.75;;;24.90;1.00;;;;;;5054775;28;20387;-67
2023/07/14 08:18:25;;;;;;;7.00;2.50;;;25.90;99.90;;;;;;5054671;28;20025;-68
2023/07/14 08:20:51;;;;;;;4.80;2.17;;;26.40;99.90;;;;;;5054612;28;20071;-67
2023/07/14 08:23:19;;;;;;;5.45;2.58;;;26.90;99.90;;;;;;5054301;28;20071;-67
2023/07/14 08:25:52;;;;;;;7.78;2.42;;;26.80;99.90;;;;;;5054562;28;20040;-67
2023/07/14 08:28:17;;;;;;;5.63;2.28;;;27.20;99.90;;;;;;5054453;28;20550;-67
2023/07/14 08:30:47;;;;;;;4.50;2.60;;;26.50;99.90;;;;;;5054228;28;20033;-67
2023/07/14 08:33:13;;;;;;;5.88;3.03;;;26.90;99.90;;;;;;5054379;28;20387;-67
2023/07/14 08:35:38;;;;;;;5.68;2.47;;;27.00;99.90;;;;;;5054466;28;20025;-67
2023/07/14 08:38:04;;;;;;;6.45;2.80;;;26.50;99.90;;;;;;5034365;28;20075;-67
2023/07/14 08:40:38;;;;;;;4.95;2.83;;;26.30;99.90;;;;;;5034377;28;20040;-67
2023/07/14 08:43:17;;;;;;;4.82;2.67;;;26.70;99.90;;;;;;5034154;28;20052;-67
2023/07/14 08:45:53;;;;;;;3.67;2.50;;;26.90;99.90;;;;;;5033850;28;20022;-67
2023/07/14 08:48:42;;;;;;;4.63;2.65;;;27.00;99.90;;;;;;5033883;28;20029;-67
2023/07/14 08:51:19;;;;;;;5.38;2.88;;;27.20;99.90;;;;;;5033652;28;20055;-67
2023/07/14 08:53:49;;;;;;;5.00;2.38;;;26.50;99.90;;;;;;5033944;28;20025;-67
2023/07/14 08:56:18;;;;;;;5.80;2.47;;;27.10;99.90;;;;;;5033759;28;20479;-68
2023/07/14 08:58:46;;;;;;;4.43;2.85;;;26.20;99.90;;;;;;5033646;28;20025;-67
2023/07/14 09:01:36;;;;;;;5.72;2.78;;;26.50;99.90;;;;;;5033714;28;20037;-67
2023/07/14 09:04:15;;;;;;;6.82;2.92;;;27.30;99.90;;;;;;5033938;28;20029;-67
2023/07/14 09:06:41;;;;;;;4.78;2.80;;;26.50;99.90;;;;;;5033743;28;20030;-67
2023/07/14 09:09:14;;;;;;;6.15;2.80;;;27.20;99.90;;;;;;5033875;28;20505;-67
2023/07/14 09:11:45;;;;;;;;;;;27.00;99.90;;;;;;5033740;28;20029;-67
2023/07/14 09:14:35;;;;;;;5.28;2.58;;;26.70;99.90;;;;;;5033838;28;19909;-67
2023/07/14 09:17:25;;;;;;;6.00;2.95;;;27.30;99.90;;;;;;5033520;28;20029;-68
2023/07/14 09:20:26;;;;;;;5.85;3.17;;;27.40;99.90;;;;;;5033551;28;20072;-67
2023/07/14 09:25:53;;;;;;;5.07;2.63;;;27.00;99.90;;;;;;5070569;28;20375;-69
2023/07/14 09:28:30;;;;;;;12.98;2.83;;;27.30;99.90;;;;;;5070606;28;20559;-68
2023/07/14 09:30:58;;;;;;;5.97;2.67;;;27.50;99.90;;;;;;5070695;28;20558;-66
2023/07/14 09:33:26;;;;;;;6.55;3.38;;;27.80;99.90;;;;;;5070486;28;20487;-67
2023/07/14 09:35:51;;;;;;;5.68;2.97;;;26.90;99.90;;;;;;5070128;28;20056;-67
2023/07/14 09:38:26;;;;;;;5.50;2.85;;;27.10;99.90;;;;;;5070056;28;20063;-67
2023/07/14 09:41:02;;;;;;;5.82;2.70;;;27.90;99.90;;;;;;5070172;28;20036;-67
2023/07/14 09:43:28;;;;;;;5.80;3.10;;;28.00;99.90;;;;;;5070354;28;20437;-67
2023/07/14 09:45:54;;;;;;;8.35;2.85;;;27.60;99.90;;;;;;5070178;28;20029;-67
2023/07/14 09:48:27;;;;;;;5.20;2.70;;;28.40;99.90;;;;;;5069880;28;20402;-67
2023/07/14 09:50:58;;;;;;;7.97;3.17;;;28.10;99.90;;;;;;5070007;28;20021;-67
2023/07/14 09:53:24;;;;;;;4.20;2.60;;;28.80;99.90;;;;;;5070172;28;20024;-67
2023/07/14 09:55:59;;;;;;;4.32;2.35;;;28.80;99.90;;;;;;5070134;28;20139;-67
2023/07/14 09:58:27;;;;;;;5.57;2.60;;;27.60;99.90;;;;;;5068680;28;20025;-66
2023/07/14 10:00:56;;;;;;;7.35;2.72;;;27.40;99.90;;;;;;5069781;28;20390;-66
2023/07/14 10:03:25;;;;;;;4.22;2.90;;;27.00;99.90;;;;;;5069690;28;20041;-66
2023/07/14 10:05:54;;;;;;;5.30;2.70;;;26.60;99.90;;;;;;5069753;28;20433;-66
2023/07/14 10:11:25;;;;;;;3.08;2.60;;;26.50;99.90;;;;;;5111076;27;20347;-68
2023/07/14 10:13:57;;;;;;;5.22;2.85;;;26.00;99.90;;;;;;5111044;28;20024;-68
2023/07/14 10:16:23;;;;;;;6.85;2.83;;;25.90;99.90;;;;;;5110797;28;20034;-67
2023/07/14 10:18:55;;;;;;;5.07;2.72;;;25.60;99.90;;;;;;5110960;28;20546;-68
2023/07/14 10:21:27;;;;;;;4.20;2.97;;;25.60;99.90;;;;;;5110885;28;20032;-68
2023/07/14 10:24:07;;;;;;;4.78;3.20;;;26.30;99.90;;;;;;5110946;28;20054;-68
2023/07/14 10:26:38;;;;;;;4.43;2.88;;;26.10;99.90;;;;;;5110848;28;20039;-68
2023/07/14 10:29:06;;;;;;;5.88;2.75;;;25.70;99.90;;;;;;5110435;28;20081;-68
2023/07/14 10:31:54;;;;;;;10.40;3.03;;;26.20;99.90;;;;;;5110915;28;20027;-68
2023/07/14 10:34:43;;;;;;;6.13;2.88;;;26.70;99.90;;;;;;5110828;28;20023;-67
2023/07/14 10:37:18;;;;;;;4.72;2.92;;;26.30;99.90;;;;;;5110724;28;20036;-68
2023/07/14 10:39:48;;;;;;;3.80;2.45;;;25.70;99.90;;;;;;5110545;28;20363;-67
2023/07/14 10:42:21;;;;;;;7.18;3.60;;;25.30;99.90;;;;;;5110183;28;20027;-68
2023/07/14 10:44:48;;;;;;;5.60;2.45;;;25.30;99.90;;;;;;5110433;28;20097;-68
2023/07/14 10:47:21;;;;;;;9.52;3.10;;;24.80;99.90;;;;;;5110577;28;20037;-67
2023/07/14 10:49:57;;;;;;;4.43;2.75;;;24.80;99.90;;;;;;5110295;28;20073;-67
2023/07/14 10:52:31;;;;;;;3.85;2.85;;;24.70;99.90;;;;;;5110237;28;20039;-68
2023/07/14 10:55:12;;;;;;;6.03;2.83;;;24.80;99.90;;;;;;5110338;28;20024;-67
2023/07/14 10:57:46;;;;;;;8.05;3.10;;;24.60;99.90;;;;;;5110251;28;20027;-67
2023/07/14 11:03:23;;;;;;;5.18;2.63;;;24.90;99.90;;;;;;5070638;28;20357;-67
2023/07/14 11:05:58;;;;;;;5.47;3.10;;;25.20;99.90;;;;;;5070730;28;20398;-67
2023/07/14 11:08:25;;;;;;;5.72;3.20;;;25.00;99.90;;;;;;5070671;28;20071;-67
2023/07/14 11:11:11;;;;;;;4.85;2.72;;;25.20;99.90;;;;;;5070585;28;20048;-67
2023/07/14 11:14:15;;;;;;;5.05;2.92;;;25.10;99.90;;;;;;5070384;28;20036;-67
2023/07/14 11:19:58;;;;;;;5.25;3.20;;;25.30;99.90;;;;;;5111050;27;20380;-67
2023/07/14 11:25:55;;;;;;;6.25;3.15;;;27.10;99.90;;;;;;5111123;27;20720;-68
2023/07/14 11:31:26;;;;;;;4.65;3.08;;;26.50;99.90;;;;;;5090712;28;20385;-66
2023/07/14 11:34:16;;;;;;;5.35;2.80;;;26.20;99.90;;;;;;5090858;28;20028;-67
2023/07/14 11:36:54;;;;;;;4.38;3.00;;;26.70;99.90;;;;;;5090457;28;20028;-67
2023/07/14 11:39:51;;;;;;;5.32;3.28;;;27.00;99.90;;;;;;5090654;28;20024;-67
2023/07/14 11:42:22;;;;;;;4.32;2.92;;;26.30;99.90;;;;;;5090667;28;20027;-67
2023/07/14 11:44:50;;;;;;;4.18;3.13;;;26.50;99.90;;;;;;5090354;28;20107;-68
2023/07/14 11:47:21;;;;;;;6.72;3.00;;;26.50;99.90;;;;;;5090439;28;20040;-67
2023/07/14 11:49:51;;;;;;;6.82;2.95;;;26.40;99.90;;;;;;5090376;28;20521;-67
2023/07/14 11:52:26;;;;;;;6.75;3.10;;;26.70;99.90;;;;;;5090288;28;20103;-67
2023/07/14 11:55:04;;;;;;;4.97;2.72;;;27.00;99.90;;;;;;5090292;28;20020;-67
2023/07/14 11:57:46;;;;;;;11.27;3.60;;;27.10;99.90;;;;;;5090332;28;20070;-68
2023/07/14 12:00:24;;;;;;;10.38;3.40;;;27.30;99.90;;;;;;5090529;28;20482;-67
2023/07/14 12:03:00;;;;;;;4.97;2.70;;;27.10;99.90;;;;;;5090153;28;20057;-67
2023/07/14 12:05:31;;;;;;;4.15;2.75;;;26.40;99.90;;;;;;5090213;28;20055;-67
2023/07/14 12:08:10;;;;;;;7.68;3.22;;;26.10;99.90;;;;;;5090394;28;20029;-67
2023/07/14 12:19:00;;;;;;;5.68;3.30;;;26.00;99.90;;;;;;5111138;27;20870;-68
2023/07/14 12:21:43;;;;;;;5.80;2.80;;;26.20;99.90;;;;;;5111121;28;20478;-68
2023/07/14 12:24:12;;;;;;;;;;;26.30;99.90;;;;;;5111887;28;20027;-68
2023/07/14 12:26:51;;;;;;;4.57;2.88;;;26.30;99.90;;;;;;5110936;28;20354;-68
2023/07/14 12:29:19;;;;;;;3.67;2.47;;;26.30;99.90;;;;;;5111021;28;20060;-68
2023/07/14 12:31:50;;;;;;;6.75;2.97;;;26.70;99.90;;;;;;5109540;28;20027;-67
2023/07/14 12:34:18;;;;;;;5.35;2.70;;;26.70;99.90;;;;;;5110954;28;20070;-67
2023/07/14 12:36:45;;;;;;;6.45;2.83;;;26.60;99.90;;;;;;5110805;28;20027;-67
2023/07/14 12:39:11;;;;;;;3.45;2.75;;;26.70;99.90;;;;;;5109635;28;20020;-67
2023/07/14 12:41:40;;;;;;;4.85;3.05;;;26.70;99.90;;;;;;5110776;28;20106;-67
2023/07/14 12:44:15;;;;;;;5.35;2.50;;;27.40;99.90;;;;;;5110503;28;20118;-67
2023/07/14 12:46:41;;;;;;;3.53;2.47;;;27.60;99.90;;;;;;5110518;28;20457;-67
2023/07/14 12:49:46;;;;;;;5.53;2.50;;;27.30;99.90;;;;;;5110905;28;20232;-68
2023/07/14 12:52:19;;;;;;;4.13;2.20;;;26.80;99.90;;;;;;5110577;28;20055;-68
2023/07/14 12:54:46;;;;;;;5.63;2.70;;;26.50;99.90;;;;;;5110664;28;20047;-67
2023/07/14 12:57:15;;;;;;;3.38;2.60;;;27.00;99.90;;;;;;5110248;28;20508;-68
2023/07/14 12:59:47;;;;;;;4.03;2.70;;;26.90;99.90;;;;;;5110507;28;20035;-67
2023/07/14 13:02:15;;;;;;;5.03;2.78;;;26.90;99.90;;;;;;5110336;28;20023;-68
2023/07/14 13:04:41;;;;;;;5.45;2.53;;;26.90;99.90;;;;;;5090484;28;20052;-68
2023/07/14 13:07:15;;;;;;;8.73;2.80;;;27.50;99.90;;;;;;5090054;28;20149;-68
2023/07/14 13:09:42;;;;;;;6.82;2.67;;;27.50;99.90;;;;;;5090037;28;20540;-68
2023/07/14 13:12:12;;;;;;;6.82;2.83;;;27.60;99.90;;;;;;5089908;28;20082;-66
2023/07/14 13:14:44;;;;;;;6.07;2.42;;;27.80;99.90;;;;;;5089369;28;20028;-67
2023/07/14 13:17:22;;;;;;;5.00;3.47;;;27.40;99.90;;;;;;5089390;28;20406;-68
2023/07/14 13:19:48;;;;;;;4.07;2.60;;;27.60;99.90;;;;;;5089176;28;20024;-67
2023/07/14 13:22:29;;;;;;;4.40;2.70;;;27.40;99.90;;;;;;5089230;28;20025;-68